createdAt,value
2023-03-06T00:00:55.427Z,97.72
2023-03-06T00:03:23.641Z,96.72
2023-03-06T00:05:50.498Z,94.05
2023-03-06T00:08:17.496Z,93.97
2023-03-06T00:10:44.678Z,107.55
2023-03-06T00:13:14.203Z,102.00
2023-03-06T00:15:41.648Z,85.38
2023-03-06T00:18:08.804Z,94.22
2023-03-06T00:20:36.528Z,91.07
2023-03-06T00:23:03.796Z,93.68
2023-03-06T00:25:30.735Z,82.82
2023-03-06T00:27:57.983Z,91.38
2023-03-06T00:30:25.884Z,88.20
2023-03-06T00:32:53.549Z,84.53
2023-03-06T00:35:20.618Z,86.05
2023-03-06T00:37:47.909Z,83.50
2023-03-06T00:40:18.044Z,87.75
2023-03-06T00:42:44.932Z,81.93
2023-03-06T00:45:12.197Z,81.57
2023-03-06T00:47:39.222Z,80.53
2023-03-06T00:50:06.766Z,81.53
2023-03-06T00:52:33.849Z,76.88
2023-03-06T00:55:00.725Z,72.40
2023-03-06T00:57:27.687Z,61.08
2023-03-06T00:59:54.496Z,60.33
2023-03-06T01:02:22.018Z,54.00
2023-03-06T01:04:48.911Z,59.00
2023-03-06T01:07:15.824Z,57.75
2023-03-06T01:09:45.132Z,60.67
2023-03-06T01:12:12.282Z,55.95
2023-03-06T01:14:39.219Z,56.88
2023-03-06T01:17:06.192Z,61.13
2023-03-06T01:19:32.978Z,63.22
2023-03-06T01:21:59.944Z,61.67
2023-03-06T01:24:26.806Z,64.13
2023-03-06T01:26:53.646Z,62.40
2023-03-06T01:29:20.921Z,76.13
2023-03-06T01:31:47.970Z,72.88
2023-03-06T01:34:14.770Z,70.50
2023-03-06T01:36:41.752Z,71.93
2023-03-06T01:39:08.581Z,73.85
2023-03-06T01:41:35.575Z,70.68
2023-03-06T01:44:02.924Z,69.55
2023-03-06T01:46:32.657Z,69.03
2023-03-06T01:49:03.084Z,75.72
2023-03-06T01:51:36.058Z,75.45
2023-03-06T01:54:08.149Z,83.45
2023-03-06T01:56:35.809Z,83.82
2023-03-06T01:59:03.366Z,76.82
2023-03-06T02:01:51.531Z,72.53
2023-03-06T02:04:19.107Z,74.75
2023-03-06T02:06:46.449Z,76.13
2023-03-06T02:09:14.750Z,78.22
2023-03-06T02:11:44.281Z,83.85
2023-03-06T02:14:17.022Z,73.00
2023-03-06T02:16:44.810Z,76.68
2023-03-06T02:19:37.790Z,78.25
2023-03-06T02:22:04.791Z,78.57
2023-03-06T02:24:34.384Z,80.47
2023-03-06T02:27:04.359Z,80.85
2023-03-06T02:29:31.983Z,75.00
2023-03-06T02:31:58.770Z,73.72
2023-03-06T02:34:25.736Z,70.75
2023-03-06T02:36:58.345Z,66.45
2023-03-06T02:39:28.548Z,71.97
2023-03-06T02:41:55.720Z,69.43
2023-03-06T02:44:24.402Z,66.32
2023-03-06T02:46:51.368Z,62.78
2023-03-06T02:49:18.383Z,62.03
2023-03-06T02:51:45.156Z,64.68
2023-03-06T02:54:12.149Z,58.10
2023-03-06T02:56:39.130Z,66.15
2023-03-06T02:59:05.923Z,60.45
2023-03-06T03:01:32.887Z,60.60
2023-03-06T03:04:00.040Z,55.92
2023-03-06T03:06:27.513Z,58.75
2023-03-06T03:08:54.594Z,59.05
2023-03-06T03:11:21.539Z,58.40
2023-03-06T03:13:48.347Z,55.70
2023-03-06T03:16:16.049Z,53.90
2023-03-06T03:18:51.516Z,53.45
2023-03-06T03:21:18.689Z,54.65
2023-03-06T03:23:45.588Z,57.05
2023-03-06T03:26:19.793Z,61.38
2023-03-06T03:28:46.687Z,56.90
2023-03-06T03:31:13.899Z,65.97
2023-03-06T03:33:41.678Z,74.65
2023-03-06T03:36:09.545Z,96.07
2023-03-06T03:38:37.289Z,86.53
2023-03-06T03:41:05.061Z,70.82
2023-03-06T03:43:32.264Z,63.03
2023-03-06T03:45:59.112Z,62.40
2023-03-06T03:48:26.070Z,59.95
2023-03-06T03:50:52.986Z,64.78
2023-03-06T03:53:19.847Z,66.30
2023-03-06T03:55:48.647Z,63.08
2023-03-06T03:58:15.897Z,59.40
2023-03-06T04:00:42.842Z,60.80
2023-03-06T04:03:09.669Z,59.70
2023-03-06T04:05:36.977Z,64.38
2023-03-06T04:08:04.565Z,62.60
2023-03-06T04:10:31.902Z,62.50
2023-03-06T04:12:58.970Z,61.20
2023-03-06T04:15:25.997Z,62.85
2023-03-06T04:17:52.977Z,61.67
2023-03-06T04:20:19.840Z,61.13
2023-03-06T04:22:46.693Z,63.33
2023-03-06T04:25:13.600Z,60.15
2023-03-06T04:27:40.637Z,57.05
2023-03-06T04:30:08.760Z,60.97
2023-03-06T04:32:35.667Z,64.72
2023-03-06T04:35:02.812Z,58.25
2023-03-06T04:37:29.817Z,63.75
2023-03-06T04:39:57.282Z,66.32
2023-03-06T04:42:24.752Z,62.00
2023-03-06T04:44:51.561Z,62.20
2023-03-06T04:47:19.341Z,61.60
2023-03-06T04:49:46.431Z,62.60
2023-03-06T04:52:13.289Z,60.35
2023-03-06T04:54:40.162Z,65.47
2023-03-06T04:57:07.028Z,67.55
2023-03-06T04:59:33.812Z,69.57
2023-03-06T05:02:00.739Z,64.30
2023-03-06T05:04:27.690Z,61.10
2023-03-06T05:06:54.475Z,60.28
2023-03-06T05:09:21.277Z,66.72
2023-03-06T05:11:48.148Z,66.32
2023-03-06T05:14:15.067Z,64.82
2023-03-06T05:16:41.920Z,62.63
2023-03-06T05:19:08.878Z,62.55
2023-03-06T05:21:35.785Z,64.20
2023-03-06T05:24:02.606Z,68.55
2023-03-06T05:26:29.457Z,67.68
2023-03-06T05:28:56.430Z,61.08
2023-03-06T05:31:23.804Z,70.13
2023-03-06T05:33:50.944Z,67.55
2023-03-06T05:36:18.095Z,63.30
2023-03-06T05:38:44.874Z,70.43
2023-03-06T05:41:14.198Z,75.78
2023-03-06T05:43:41.494Z,78.15
2023-03-06T05:46:09.374Z,98.88
2023-03-06T05:48:37.674Z,85.10
2023-03-06T05:51:05.640Z,78.30
2023-03-06T05:53:33.160Z,60.45
2023-03-06T05:56:06.755Z,61.63
2023-03-06T05:58:34.054Z,56.15
2023-03-06T06:01:01.082Z,60.05
2023-03-06T06:03:28.205Z,57.53
2023-03-06T06:05:55.045Z,60.25
2023-03-06T06:08:22.052Z,53.10
2023-03-06T06:10:51.001Z,61.67
2023-03-06T06:13:19.589Z,50.00
2023-03-06T06:15:46.469Z,52.65
2023-03-06T06:18:13.437Z,56.15
2023-03-06T06:20:40.273Z,57.97
2023-03-06T06:23:07.230Z,45.38
2023-03-06T06:25:34.385Z,43.30
2023-03-06T06:28:01.221Z,46.80
2023-03-06T06:30:29.841Z,46.22
2023-03-06T06:32:56.883Z,51.25
2023-03-06T06:35:23.794Z,67.35
2023-03-06T06:37:51.150Z,48.33
2023-03-06T06:40:18.564Z,52.78
2023-03-06T06:42:46.725Z,41.92
2023-03-06T06:45:13.828Z,42.67
2023-03-06T06:47:41.773Z,40.92
2023-03-06T06:50:13.359Z,39.75
2023-03-06T06:52:41.066Z,39.63
2023-03-06T06:55:09.107Z,33.70
2023-03-06T06:57:36.358Z,36.17
2023-03-06T07:00:05.196Z,34.63
2023-03-06T07:02:33.119Z,41.05
2023-03-06T07:05:04.576Z,39.13
2023-03-06T07:07:35.635Z,33.97
2023-03-06T07:10:05.805Z,32.10
2023-03-06T07:12:33.057Z,34.05
2023-03-06T07:15:00.003Z,31.65
2023-03-06T07:17:26.798Z,30.83
2023-03-06T07:19:53.570Z,30.38
2023-03-06T07:22:20.391Z,34.05
2023-03-06T07:24:47.232Z,33.47
2023-03-06T07:27:13.996Z,28.30
2023-03-06T07:29:43.716Z,28.15
2023-03-06T07:32:11.674Z,24.83
2023-03-06T07:34:38.544Z,29.35
2023-03-06T07:37:05.607Z,26.30
2023-03-06T07:39:32.443Z,29.88
2023-03-06T07:41:59.288Z,27.35
2023-03-06T07:44:26.527Z,28.48
2023-03-06T07:46:53.563Z,24.30
2023-03-06T07:49:20.475Z,28.83
2023-03-06T07:51:47.425Z,26.90
2023-03-06T07:54:14.290Z,26.40
2023-03-06T07:56:41.255Z,25.17
2023-03-06T07:59:08.247Z,26.35
2023-03-06T08:01:36.568Z,24.88
2023-03-06T08:04:03.751Z,27.55
2023-03-06T08:06:30.683Z,50.70
2023-03-06T08:08:57.809Z,21.50
2023-03-06T08:11:28.340Z,26.45
2023-03-06T08:13:55.812Z,22.05
2023-03-06T08:16:24.934Z,19.05
2023-03-06T08:18:52.021Z,22.70
2023-03-06T08:21:21.801Z,18.55
2023-03-06T08:23:48.836Z,16.80
2023-03-06T08:26:19.487Z,21.08
2023-03-06T08:28:46.979Z,21.48
2023-03-06T08:31:24.188Z,20.35
2023-03-06T08:33:51.579Z,22.35
2023-03-06T08:36:18.630Z,19.92
2023-03-06T08:38:45.424Z,19.15
2023-03-06T08:41:12.420Z,21.05
2023-03-06T08:43:39.393Z,22.60
2023-03-06T08:46:06.355Z,21.83
2023-03-06T08:48:33.295Z,26.67
2023-03-06T08:51:00.081Z,26.73
2023-03-06T08:53:41.748Z,28.27
2023-03-06T08:56:30.503Z,24.02
2023-03-06T08:58:59.669Z,23.73
2023-03-06T09:01:29.049Z,26.85
2023-03-06T09:03:58.879Z,22.90
2023-03-06T09:06:27.551Z,22.73
2023-03-06T09:08:55.373Z,25.90
2023-03-06T09:11:24.723Z,25.33
2023-03-06T09:13:51.870Z,25.23
2023-03-06T09:16:18.860Z,32.53
2023-03-06T09:18:45.950Z,27.20
2023-03-06T09:21:13.171Z,24.27
2023-03-06T09:23:40.173Z,27.92
2023-03-06T09:26:08.700Z,25.70
2023-03-06T09:28:39.187Z,32.83
2023-03-06T09:31:16.245Z,25.13
2023-03-06T09:33:43.579Z,30.23
2023-03-06T09:36:15.990Z,28.13
2023-03-06T09:38:43.019Z,32.15
2023-03-06T09:41:35.691Z,28.23
2023-03-06T09:44:12.114Z,29.08
2023-03-06T09:47:08.118Z,29.80
2023-03-06T09:49:42.503Z,27.08
2023-03-06T09:52:43.689Z,24.02
2023-03-06T09:55:16.977Z,25.38
2023-03-06T09:57:52.987Z,28.65
2023-03-06T10:00:24.670Z,28.33
2023-03-06T10:03:01.084Z,32.33
2023-03-06T10:05:36.265Z,30.60
2023-03-06T10:08:36.375Z,30.00
2023-03-06T10:11:09.001Z,22.70
2023-03-06T10:13:38.486Z,23.85
2023-03-06T10:16:26.127Z,24.73
2023-03-06T10:18:54.936Z,35.35
2023-03-06T10:21:24.726Z,28.25
2023-03-06T10:24:01.719Z,30.25
2023-03-06T10:26:49.078Z,23.27
2023-03-06T10:29:30.038Z,20.38
2023-03-06T10:32:12.608Z,19.80
2023-03-06T10:34:41.156Z,18.92
2023-03-06T10:37:34.235Z,23.08
2023-03-06T10:40:16.149Z,22.17
2023-03-06T10:42:43.106Z,22.60
2023-03-06T10:45:16.097Z,21.38
2023-03-06T10:47:43.692Z,19.85
2023-03-06T10:50:24.311Z,20.55
2023-03-06T10:53:04.626Z,22.35
2023-03-06T10:55:32.937Z,17.90
2023-03-06T10:58:19.261Z,17.88
2023-03-06T11:00:46.591Z,23.40
2023-03-06T11:03:17.728Z,17.50
2023-03-06T11:06:02.830Z,19.70
2023-03-06T11:08:30.524Z,24.20
2023-03-06T11:11:04.003Z,22.42
2023-03-06T11:13:34.113Z,22.20
2023-03-06T11:16:26.124Z,18.80
2023-03-06T11:19:04.153Z,21.85
2023-03-06T11:21:36.477Z,20.00
2023-03-06T11:24:23.665Z,21.05
2023-03-06T11:26:56.993Z,19.05
2023-03-06T11:29:43.586Z,20.65
2023-03-06T11:32:14.977Z,17.60
2023-03-06T11:35:03.450Z,18.48
2023-03-06T11:37:49.768Z,15.93
2023-03-06T11:40:40.647Z,17.60
2023-03-06T11:43:19.516Z,15.07
2023-03-06T11:45:55.086Z,16.10
2023-03-06T11:48:31.624Z,18.45
2023-03-06T11:53:37.265Z,16.70
2023-03-06T11:56:10.088Z,17.42
2023-03-06T11:58:50.934Z,18.73
2023-03-06T12:01:35.683Z,17.52
2023-03-06T12:04:33.577Z,20.98
2023-03-06T12:07:21.148Z,17.90
2023-03-06T12:10:17.516Z,13.75
2023-03-06T12:13:12.191Z,13.88
2023-03-06T12:15:53.004Z,12.50
2023-03-06T12:18:38.567Z,17.27
2023-03-06T12:21:36.294Z,15.13
2023-03-06T12:24:49.225Z,14.27
2023-03-06T12:27:34.074Z,14.13
2023-03-06T12:30:19.966Z,11.10
2023-03-06T12:33:00.934Z,13.82
2023-03-06T12:35:53.213Z,13.77
2023-03-06T12:38:38.235Z,13.13
2023-03-06T12:41:19.419Z,12.18
2023-03-06T12:44:18.602Z,10.23
2023-03-06T12:46:49.698Z,13.80
2023-03-06T12:49:32.497Z,10.63
2023-03-06T12:52:02.456Z,13.73
2023-03-06T12:54:33.525Z,17.33
2023-03-06T12:57:01.612Z,17.42
2023-03-06T12:59:49.572Z,26.40
2023-03-06T13:02:55.612Z,16.27
2023-03-06T13:05:50.764Z,10.90
2023-03-06T13:08:47.011Z,16.35
2023-03-06T13:11:35.610Z,60.08
2023-03-06T13:14:25.745Z,21.48
2023-03-06T13:16:53.090Z,16.58
2023-03-06T13:19:39.486Z,10.30
2023-03-06T13:22:15.488Z,11.93
2023-03-06T13:24:44.099Z,12.15
2023-03-06T13:27:12.555Z,13.82
2023-03-06T13:29:39.364Z,9.43
2023-03-06T13:32:17.225Z,11.10
2023-03-06T13:34:49.281Z,12.48
2023-03-06T13:37:25.042Z,9.88
2023-03-06T13:40:00.686Z,11.67
2023-03-06T13:42:57.360Z,32.03
2023-03-06T13:45:28.275Z,13.00
2023-03-06T13:50:49.945Z,13.15
2023-03-06T13:53:22.733Z,10.75
2023-03-06T13:56:10.245Z,14.13
2023-03-06T13:59:09.493Z,9.80
2023-03-06T14:01:54.884Z,11.07
2023-03-06T14:04:53.533Z,13.85
2023-03-06T14:07:35.941Z,12.70
2023-03-06T14:10:34.814Z,12.52
2023-03-06T14:13:05.876Z,12.02
2023-03-06T14:15:44.638Z,11.70
2023-03-06T14:18:20.569Z,17.48
2023-03-06T14:21:30.670Z,12.55
2023-03-06T14:24:03.450Z,13.15
2023-03-06T14:26:34.204Z,20.20
2023-03-06T14:29:03.044Z,18.02
2023-03-06T14:31:37.579Z,17.85
2023-03-06T14:34:07.485Z,22.05
2023-03-06T14:36:44.886Z,25.85
2023-03-06T14:39:23.174Z,18.48
2023-03-06T14:41:50.192Z,29.67
2023-03-06T14:44:35.618Z,25.88
2023-03-06T14:47:23.818Z,22.52
2023-03-06T14:50:19.765Z,19.58
2023-03-06T14:52:46.846Z,21.35
2023-03-06T14:55:22.813Z,25.23
2023-03-06T14:58:13.703Z,19.02
2023-03-06T15:00:44.201Z,21.23
2023-03-06T15:03:42.670Z,20.55
2023-03-06T15:06:22.850Z,21.20
2023-03-06T15:09:02.204Z,22.70
2023-03-06T15:11:53.148Z,17.63
2023-03-06T15:14:27.349Z,24.55
2023-03-06T15:16:54.218Z,23.45
2023-03-06T15:19:22.989Z,29.98
2023-03-06T15:21:52.240Z,26.13
2023-03-06T15:24:45.724Z,26.42
2023-03-06T15:27:19.587Z,22.15
2023-03-06T15:29:46.526Z,25.27
2023-03-06T15:32:25.639Z,26.77
2023-03-06T15:35:34.664Z,24.75
2023-03-06T15:38:04.398Z,33.90
2023-03-06T15:40:32.052Z,35.83
2023-03-06T15:42:59.431Z,26.75
2023-03-06T15:45:28.037Z,27.25
2023-03-06T15:47:56.005Z,32.85
2023-03-06T15:50:28.888Z,28.83
2023-03-06T15:52:55.870Z,29.05
2023-03-06T15:55:26.100Z,22.15
2023-03-06T15:58:00.181Z,23.83
2023-03-06T16:00:32.873Z,18.70
2023-03-06T16:03:00.713Z,26.98
2023-03-06T16:05:29.243Z,28.85
2023-03-06T16:07:56.846Z,28.80
2023-03-06T16:10:26.775Z,22.58
2023-03-06T16:13:15.087Z,26.60
2023-03-06T16:15:47.853Z,25.75
2023-03-06T16:18:15.218Z,25.70
2023-03-06T16:20:42.430Z,26.27
2023-03-06T16:23:12.737Z,26.63
2023-03-06T16:25:42.301Z,21.85
2023-03-06T16:28:18.382Z,25.00
2023-03-06T16:30:46.107Z,34.60
2023-03-06T16:33:13.824Z,29.20
2023-03-06T16:35:41.459Z,40.05
2023-03-06T16:38:10.025Z,30.42
2023-03-06T16:40:41.436Z,25.00
2023-03-06T16:43:27.207Z,29.70
2023-03-06T16:45:54.182Z,28.63
2023-03-06T16:48:21.020Z,26.55
2023-03-06T16:50:48.140Z,24.98
2023-03-06T16:53:15.843Z,30.83
2023-03-06T16:55:42.882Z,31.38
2023-03-06T16:58:10.332Z,35.42
2023-03-06T17:00:37.327Z,35.20
2023-03-06T17:03:04.434Z,38.47
2023-03-06T17:05:37.147Z,34.15
2023-03-06T17:08:04.986Z,35.80
2023-03-06T17:10:31.940Z,30.20
2023-03-06T17:12:58.882Z,34.85
2023-03-06T17:15:26.068Z,32.70
2023-03-06T17:17:53.637Z,41.78
2023-03-06T17:20:21.128Z,35.25
2023-03-06T17:22:49.127Z,32.58
2023-03-06T17:25:16.220Z,37.28
2023-03-06T17:27:43.052Z,37.83
2023-03-06T17:30:10.993Z,36.95
2023-03-06T17:32:40.914Z,30.13
2023-03-06T17:35:09.590Z,36.35
2023-03-06T17:37:36.752Z,34.63
2023-03-06T17:40:04.048Z,43.47
2023-03-06T17:42:31.175Z,41.25
2023-03-06T17:44:58.050Z,45.30
2023-03-06T17:47:25.004Z,47.55
2023-03-06T17:49:51.823Z,43.17
2023-03-06T17:52:18.936Z,48.70
2023-03-06T17:54:46.674Z,48.33
2023-03-06T17:57:13.693Z,52.88
2023-03-06T17:59:40.641Z,47.15
2023-03-06T18:02:07.815Z,53.72
2023-03-06T18:04:34.949Z,59.58
2023-03-06T18:07:01.978Z,60.80
2023-03-06T18:09:29.747Z,54.65
2023-03-06T18:11:56.800Z,54.05
2023-03-06T18:14:24.605Z,57.72
2023-03-06T18:16:51.627Z,49.72
2023-03-06T18:19:18.516Z,49.72
2023-03-06T18:21:47.472Z,48.65
2023-03-06T18:24:14.862Z,42.08
2023-03-06T18:27:00.469Z,31.80
2023-03-06T18:29:27.360Z,33.22
2023-03-06T18:31:54.163Z,34.40
2023-03-06T18:34:21.225Z,36.50
2023-03-06T18:36:50.909Z,47.95
2023-03-06T18:39:17.726Z,38.22
2023-03-06T18:41:44.788Z,34.60
2023-03-06T18:44:17.812Z,42.15
2023-03-06T18:46:44.716Z,47.13
2023-03-06T18:49:13.384Z,56.63
2023-03-06T18:51:40.787Z,44.45
2023-03-06T18:54:08.280Z,48.53
2023-03-06T18:56:35.308Z,53.65
2023-03-06T18:59:05.619Z,52.50
2023-03-06T19:01:33.494Z,54.63
2023-03-06T19:04:02.477Z,54.38
2023-03-06T19:06:30.146Z,57.58
2023-03-06T19:09:01.673Z,55.70
2023-03-06T19:11:29.132Z,69.47
2023-03-06T19:13:56.197Z,59.60
2023-03-06T19:16:26.326Z,61.65
2023-03-06T19:18:55.652Z,68.65
2023-03-06T19:21:25.900Z,70.35
2023-03-06T19:23:53.017Z,83.15
2023-03-06T19:26:20.268Z,78.35
2023-03-06T19:28:47.569Z,83.07
2023-03-06T19:31:19.516Z,92.88
2023-03-06T19:33:49.963Z,100.95
2023-03-06T19:36:18.464Z,125.93
2023-03-06T19:38:45.909Z,114.10
2023-03-06T19:41:13.992Z,112.55
2023-03-06T19:43:42.627Z,111.00
2023-03-06T19:46:14.177Z,114.32
2023-03-06T19:48:43.020Z,103.40
2023-03-06T19:51:10.467Z,95.53
2023-03-06T19:53:38.040Z,117.47
2023-03-06T19:56:06.997Z,107.03
2023-03-06T19:58:34.256Z,111.05
2023-03-06T20:01:12.910Z,120.15
2023-03-06T20:03:40.520Z,111.20
2023-03-06T20:06:12.078Z,126.85
2023-03-06T20:08:38.894Z,131.32
2023-03-06T20:11:06.995Z,134.90
2023-03-06T20:13:33.771Z,127.90
2023-03-06T20:16:04.609Z,122.90
2023-03-06T20:18:31.577Z,119.00
2023-03-06T20:21:00.517Z,128.20
2023-03-06T20:23:28.332Z,116.32
2023-03-06T20:25:55.309Z,119.28
2023-03-06T20:28:23.046Z,130.30
2023-03-06T20:30:49.955Z,123.35
2023-03-06T20:33:17.200Z,129.30
2023-03-06T20:35:44.720Z,124.68
2023-03-06T20:38:12.328Z,114.90
2023-03-06T20:40:42.794Z,124.63
2023-03-06T20:43:09.898Z,128.50
2023-03-06T20:45:36.854Z,113.60
2023-03-06T20:48:03.970Z,108.07
2023-03-06T20:50:31.442Z,103.50
2023-03-06T20:52:59.300Z,113.30
2023-03-06T20:55:26.243Z,114.72
2023-03-06T20:57:53.399Z,120.28
2023-03-06T21:00:21.616Z,108.40
2023-03-06T21:02:48.540Z,73.95
2023-03-06T21:05:15.757Z,89.82
2023-03-06T21:07:42.785Z,77.43
2023-03-06T21:10:10.017Z,58.63
2023-03-06T21:12:37.027Z,71.78
2023-03-06T21:15:04.258Z,55.10
2023-03-06T21:17:31.132Z,66.57
2023-03-06T21:19:58.777Z,61.75
2023-03-06T21:22:26.036Z,64.70
2023-03-06T21:24:52.891Z,59.35
2023-03-06T21:27:20.085Z,61.40
2023-03-06T21:29:46.936Z,65.15
2023-03-06T21:32:13.851Z,64.00
2023-03-06T21:34:40.721Z,57.20
2023-03-06T21:37:07.877Z,57.45
2023-03-06T21:39:35.172Z,54.00
2023-03-06T21:42:02.231Z,48.03
2023-03-06T21:44:29.256Z,46.33
2023-03-06T21:46:56.337Z,36.53
2023-03-06T21:49:26.199Z,19.55
2023-03-06T21:51:53.851Z,32.08
2023-03-06T21:54:21.035Z,28.42
2023-03-06T21:56:48.078Z,20.23
2023-03-06T21:59:15.276Z,17.63
2023-03-06T22:01:42.862Z,25.23
2023-03-06T22:04:09.892Z,17.85
2023-03-06T22:06:40.192Z,19.33
2023-03-06T22:09:07.436Z,21.02
2023-03-06T22:11:37.478Z,19.98
2023-03-06T22:14:06.112Z,23.90
2023-03-06T22:16:33.386Z,20.98
2023-03-06T22:19:00.323Z,19.30
2023-03-06T22:21:27.492Z,21.35
2023-03-06T22:23:59.048Z,22.40
2023-03-06T22:26:27.800Z,20.92
2023-03-06T22:28:54.781Z,20.77
2023-03-06T22:31:28.840Z,18.23
2023-03-06T22:34:00.608Z,18.42
2023-03-06T22:36:30.646Z,14.93
2023-03-06T22:38:59.725Z,16.45
2023-03-06T22:41:27.915Z,13.25
2023-03-06T22:44:02.499Z,14.73
2023-03-06T22:46:29.878Z,13.75
2023-03-06T22:48:57.732Z,14.38
2023-03-06T22:51:25.249Z,13.90
2023-03-06T22:53:52.444Z,14.25
2023-03-06T22:56:21.723Z,17.17
2023-03-06T22:58:49.132Z,14.15
2023-03-06T23:01:25.441Z,12.07
2023-03-06T23:03:54.857Z,14.98
2023-03-06T23:06:25.143Z,15.65
2023-03-06T23:08:57.636Z,10.65
2023-03-06T23:11:25.858Z,21.70
2023-03-06T23:13:54.173Z,13.45
2023-03-06T23:16:21.074Z,15.25
2023-03-06T23:18:48.576Z,14.63
2023-03-06T23:21:18.234Z,18.35
2023-03-06T23:23:49.064Z,16.23
2023-03-06T23:26:17.404Z,15.05
2023-03-06T23:28:44.394Z,15.30
2023-03-06T23:31:17.631Z,16.05
2023-03-06T23:33:44.595Z,17.55
2023-03-06T23:36:14.111Z,15.85
2023-03-06T23:38:41.836Z,18.38
2023-03-06T23:41:12.373Z,20.83
2023-03-06T23:43:39.915Z,18.35
2023-03-06T23:46:07.857Z,23.35
2023-03-06T23:48:36.318Z,21.75
2023-03-06T23:51:23.179Z,22.45
2023-03-06T23:53:55.575Z,18.95
2023-03-06T23:56:29.830Z,22.65
2023-03-06T23:58:56.926Z,20.85
